Latest Weather Observations for Beaudesert AWS

IDQ60801

Issued at 7:02 pm EST Sunday 24 May 2015 (issued every 30 minutes, with the page automatically refreshed every 10 minutes)

About weather observations | Map of weather stations | Latest weather observations for QLD | Other Formats
Station Details ID: 040983 Name: BEAUDESERT DRUMLEY STREET Lat: -27.97 Lon: 152.99 Height: 47.81 m
Data from the previous 72 hours. | See also: Recent months at Beaudesert AWS
Date/Time
EST
Temp
°C
App
Temp
°C
Dew
Point
Rel
Hum
%
Delta-T
°C
Wind Press
QNH
hPa
Press
MSL
hPa
Rain
since 9 am
mm
Dir
 
Spd
km/h
Gust
km/h
Spd
kts
Gust
kts
24/07:00pm 15.5 15.4 10.7 73 2.5 SE 2 6 1 3 1029.6 1029.5 0.0
24/06:30pm 16.0 15.8 10.3 69 3.0 SW 2 6 1 3 1029.3 1029.2 0.0
24/06:00pm 17.8 17.3 10.7 63 3.8 S 4 7 2 4 1029.1 1029.0 0.0
24/05:30pm 18.7 17.9 11.0 61 4.2 S 6 6 3 3 1028.8 1028.7 0.0
24/05:00pm 19.4 18.6 11.2 59 4.5 SSW 6 9 3 5 1028.4 1028.3 0.0
24/04:30pm 20.1 19.2 10.8 55 5.1 S 6 9 3 5 1028.0 1027.9 0.0
24/04:00pm 20.2 19.4 10.9 55 5.1 SSW 6 9 3 5 1027.8 1027.7 0.0
24/03:30pm 20.6 18.4 10.7 53 5.4 SSW 13 20 7 11 1027.2 1027.1 0.0
24/03:00pm 21.1 19.3 10.9 52 5.6 SW 11 19 6 10 1027.2 1027.1 0.0
24/02:30pm 21.1 17.7 10.6 51 5.7 SW 19 30 10 16 1027.1 1027.0 0.0
24/02:00pm 21.9 20.3 11.6 52 5.7 SSW 11 19 6 10 1027.1 1027.0 0.0
24/01:30pm 22.6 21.1 10.7 47 6.6 E 9 17 5 9 1027.1 1027.0 0.0
24/01:00pm 21.4 18.9 9.6 47 6.3 SSE 13 20 7 11 1026.9 1026.8 0.0
24/12:30pm 21.9 20.1 11.0 50 6.0 SSW 11 17 6 9 1027.0 1026.9 0.0
24/12:00pm 21.8 19.6 12.1 54 5.4 SSW 15 24 8 13 1027.6 1027.5 0.0
24/11:30am 21.2 18.4 11.2 53 5.5 SW 17 24 9 13 1028.2 1028.1 0.0
24/11:00am 20.4 17.2 11.1 55 5.1 SSW 19 26 10 14 1028.4 1028.3 0.0
24/10:30am 20.3 17.5 11.2 56 5.0 SW 17 24 9 13 1028.8 1028.7 0.0
24/10:00am 19.9 17.4 11.1 57 4.8 S 15 20 8 11 1028.7 1028.6 0.0
24/09:30am 18.9 16.4 11.0 60 4.3 SSW 15 22 8 12 1029.0 1028.9 0.0
24/09:00am 17.8 15.3 10.9 64 3.7 SSW 15 20 8 11 1028.9 1028.8 0.0
24/08:30am 16.9 15.2 11.2 69 3.1 S 11 19 6 10 1029.0 1028.9 0.0
24/08:00am 15.3 13.9 10.9 75 2.3 SSW 9 15 5 8 1028.9 1028.8 0.0
24/07:30am 13.4 13.2 10.4 82 1.6 S 2 4 1 2 1028.8 1028.7 0.0
24/07:00am 11.5 11.0 9.4 87 1.1 S 2 4 1 2 1028.0 1027.9 0.0
24/06:30am 11.2 10.2 8.9 86 1.1 SSW 4 6 2 3 1027.5 1027.4 0.0
24/06:00am 12.0 11.1 9.4 84 1.3 SSW 4 6 2 3 1027.2 1027.1 0.0
24/05:30am 12.2 11.5 9.9 86 1.2 SE 4 9 2 5 1026.8 1026.7 0.0
24/05:00am 11.9 11.3 10.3 90 0.8 SSE 4 6 2 3 1026.7 1026.6 0.0
24/04:30am 11.3 11.3 9.7 90 0.8 CALM 0 4 0 2 1026.5 1026.4 0.0
24/04:00am 12.4 12.6 10.5 88 1.0 CALM 0 0 0 0 1026.4 1026.3 0.0
24/03:30am 13.2 12.7 10.7 85 1.3 S 4 6 2 3 1026.3 1026.2 0.0
24/03:00am 14.0 13.6 11.2 83 1.5 SSW 4 6 2 3 1026.4 1026.3 0.0
24/02:30am 14.6 14.5 12.1 85 1.4 SSW 4 7 2 4 1026.6 1026.5 0.0
24/02:00am 14.4 14.3 12.1 86 1.2 SSE 4 7 2 4 1026.5 1026.4 0.0
24/01:30am 13.9 13.8 12.1 89 1.0 SSE 4 7 2 4 1026.4 1026.3 0.0
24/01:00am 13.0 12.6 11.1 88 1.0 SSW 4 7 2 4 1026.2 1026.1 0.0
24/12:30am 12.9 12.5 11.1 89 0.9 SSW 4 6 2 3 1026.3 1026.2 0.0
24/12:00am 12.5 12.4 10.7 89 0.9 SSE 2 6 1 3 1026.4 1026.3 0.0
 
Date/Time
EST
Temp
°C
App
Temp
°C
Dew
Point
Rel
Hum
%
Delta-T
°C
Wind Press
QNH
hPa
Press
MSL
hPa
Rain
since 9 am
mm
Dir
 
Spd
km/h
Gust
km/h
Spd
kts
Gust
kts
23/11:30pm 11.5 11.4 9.6 88 1.0 CALM 0 0 0 0 1026.2 1026.1 0.0
23/11:00pm 11.8 11.8 9.7 87 1.1 CALM 0 0 0 0 1026.4 1026.3 0.0
23/10:30pm 10.5 10.1 8.4 87 1.0 CALM 0 4 0 2 1026.4 1026.3 0.0
23/10:00pm 10.9 10.6 8.8 87 1.0 CALM 0 0 0 0 1026.3 1026.2 0.0
23/09:30pm 11.0 10.8 8.9 87 1.0 CALM 0 0 0 0 1026.4 1026.3 0.0
23/09:00pm 11.4 11.1 8.6 83 1.4 CALM 0 0 0 0 1026.3 1026.2 0.0
23/08:30pm 12.4 12.2 9.2 81 1.6 CALM 0 0 0 0 1026.3 1026.2 0.0
23/08:00pm 13.3 13.3 9.7 79 1.8 CALM 0 0 0 0 1026.2 1026.1 0.0
23/07:30pm 12.4 12.2 8.9 79 1.8 CALM 0 0 0 0 1025.8 1025.7 0.0
23/07:00pm 13.6 13.4 9.1 74 2.3 CALM 0 0 0 0 1025.7 1025.6 0.0
23/06:30pm 14.7 13.9 8.2 65 3.3 S 2 4 1 2 1025.3 1025.2 0.0
23/06:00pm 16.7 15.7 8.9 60 4.0 S 4 6 2 3 1025.2 1025.1 0.0
23/05:30pm 16.9 16.0 7.8 55 4.6 SW 2 4 1 2 1024.9 1024.8 0.0
23/05:00pm 17.5 16.4 7.0 50 5.2 S 2 7 1 4 1024.5 1024.4 0.0
23/04:30pm 18.9 16.2 7.4 47 5.8 SSE 11 17 6 9 1024.2 1024.1 0.0
23/04:00pm 19.8 16.4 7.5 45 6.3 SSE 15 26 8 14 1023.9 1023.8 0.0
23/03:30pm 20.3 17.5 8.6 47 6.1 S 13 22 7 12 1023.4 1023.3 0.0
23/03:00pm 20.3 16.6 9.5 50 5.7 SSW 19 28 10 15 1023.5 1023.4 0.0
23/02:30pm 20.3 17.9 10.1 52 5.5 S 13 24 7 13 1023.6 1023.5 0.0
23/02:00pm 20.6 17.2 10.4 52 5.5 S 19 30 10 16 1023.5 1023.4 0.0
23/01:30pm 21.0 18.3 10.2 50 5.9 S 15 24 8 13 1023.2 1023.1 0.0
23/01:00pm 20.0 16.5 10.1 53 5.3 SSW 19 30 10 16 1023.3 1023.2 0.0
23/12:30pm 20.5 16.8 10.3 52 5.5 SSW 20 30 11 16 1023.4 1023.3 0.0
23/12:00pm 20.7 15.8 8.4 45 6.4 S 24 39 13 21 1023.6 1023.5 0.0
23/11:30am 19.5 15.2 9.4 52 5.4 SSW 22 35 12 19 1023.8 1023.7 0.0
23/11:00am 19.5 15.9 9.7 53 5.2 SSW 19 30 10 16 1024.0 1023.9 0.0
23/10:30am 19.2 15.5 10.2 56 4.8 SSW 20 33 11 18 1024.1 1024.0 0.0
23/10:00am 18.4 14.6 9.7 57 4.6 SSW 20 37 11 20 1023.9 1023.8 0.0
23/09:30am 18.3 13.8 9.9 58 4.5 SSW 24 35 13 19 1023.8 1023.7 0.0
23/09:00am 18.0 14.1 9.4 57 4.5 SSW 20 35 11 19 1023.5 1023.4 0.0
23/08:30am 17.3 13.3 9.0 58 4.3 SSW 20 30 11 16 1023.4 1023.3 0.0
23/08:00am 16.9 13.2 9.3 61 3.9 SSW 19 32 10 17 1022.9 1022.8 0.0
23/07:30am 15.9 12.4 8.9 63 3.6 SSW 17 30 9 16 1022.2 1022.2 0.0
23/07:00am 15.4 11.8 8.4 63 3.5 SSW 17 30 9 16 1021.7 1021.7 0.0
23/06:30am 15.1 11.4 8.1 63 3.5 SSW 17 30 9 16 1021.1 1021.1 0.0
23/06:00am 15.2 12.1 8.7 65 3.3 S 15 26 8 14 1020.7 1020.7 0.0
23/05:30am 14.9 12.4 8.4 65 3.3 SSW 11 17 6 9 1020.8 1020.8 0.0
23/05:00am 15.3 11.7 8.5 64 3.4 SSW 17 24 9 13 1020.5 1020.5 0.0
23/04:30am 15.9 12.0 8.6 62 3.7 SSW 19 39 10 21 1020.4 1020.4 0.0
23/04:00am 15.5 12.3 8.5 63 3.5 SSW 15 26 8 14 1020.2 1020.2 0.0
23/03:30am 15.9 12.3 8.4 61 3.8 SSW 17 30 9 16 1020.1 1020.1 0.0
23/03:00am 16.3 12.2 8.8 61 3.8 SSW 20 37 11 20 1020.0 1020.0 0.0
23/02:30am 16.1 12.2 8.6 61 3.8 SSW 19 30 10 16 1019.9 1019.9 0.0
23/02:00am 16.2 12.7 8.7 61 3.8 SSW 17 26 9 14 1019.8 1019.8 0.0
23/01:30am 16.2 12.1 8.7 61 3.8 SSW 20 32 11 17 1019.7 1019.7 0.0
23/01:00am 16.3 12.6 9.3 63 3.6 SSW 19 33 10 18 1019.5 1019.5 0.0
23/12:30am 14.4 12.2 9.2 71 2.7 SW 11 19 6 10 1019.5 1019.5 0.0
23/12:00am 12.7 12.7 9.7 82 1.5 CALM 0 2 0 1 1019.6 1019.6 0.0
 
Date/Time
EST
Temp
°C
App
Temp
°C
Dew
Point
Rel
Hum
%
Delta-T
°C
Wind Press
QNH
hPa
Press
MSL
hPa
Rain
since 9 am
mm
Dir
 
Spd
km/h
Gust
km/h
Spd
kts
Gust
kts
22/11:30pm 12.6 12.6 9.8 83 1.4 CALM 0 0 0 0 1019.6 1019.6 0.0
22/11:00pm 12.3 11.7 8.8 79 1.7 NE 2 4 1 2 1019.4 1019.4 0.0
22/10:30pm 12.0 11.2 8.3 78 1.8 ENE 2 4 1 2 1019.4 1019.4 0.0
22/10:00pm 12.0 11.6 8.1 77 1.9 CALM 0 0 0 0 1019.4 1019.4 0.0
22/09:30pm 11.5 10.2 7.8 78 1.8 ESE 4 9 2 5 1019.2 1019.2 0.0
22/09:00pm 11.5 11.0 7.8 78 1.8 CALM 0 6 0 3 1018.9 1018.9 0.0
22/08:30pm 11.9 10.9 7.4 74 2.2 ENE 2 6 1 3 1018.8 1018.8 0.0
22/08:00pm 12.1 11.5 7.2 72 2.4 CALM 0 2 0 1 1018.5 1018.5 0.0
22/07:30pm 13.2 11.6 6.3 63 3.3 NW 4 6 2 3 1018.1 1018.0 0.0
22/07:00pm 14.9 13.0 7.5 61 3.7 WSW 7 9 4 5 1017.8 1017.7 0.0
22/06:30pm 14.8 13.6 6.4 57 4.1 SW 2 9 1 5 1017.1 1017.0 0.0
22/06:00pm 15.4 14.6 6.4 55 4.4 CALM 0 0 0 0 1016.5 1016.4 0.0
22/05:30pm 15.4 14.6 6.4 55 4.4 CALM 0 4 0 2 1016.4 1016.3 0.0
22/05:00pm 16.6 13.6 6.1 50 5.1 WSW 11 19 6 10 1015.9 1015.8 0.0
22/04:30pm 18.2 14.8 6.1 45 6.0 WSW 13 20 7 11 1015.7 1015.6 0.0
22/04:00pm 18.8 15.1 6.3 44 6.2 WSW 15 24 8 13 1015.5 1015.4 0.0
22/03:30pm 19.0 14.2 5.8 42 6.5 W 20 33 11 18 1014.5 1014.4 0.0
22/03:00pm 19.2 13.8 6.3 43 6.4 W 24 41 13 22 1014.8 1014.7 0.0
22/02:30pm 19.8 14.8 6.5 42 6.7 WSW 22 37 12 20 1014.8 1014.7 0.0
22/02:00pm 19.5 13.9 5.6 40 6.8 WSW 24 39 13 21 1014.7 1014.6 0.0
22/01:30pm 19.6 15.0 6.7 43 6.5 W 20 32 11 17 1015.0 1014.9 0.0
22/01:00pm 18.9 14.1 5.7 42 6.5 WNW 20 32 11 17 1015.2 1015.1 0.0
22/12:30pm 18.6 13.5 5.8 43 6.3 W 22 35 12 19 1015.4 1015.3 0.0
22/12:00pm 18.9 14.7 7.4 47 5.8 W 19 30 10 16 1015.9 1015.8 0.0
22/11:30am 18.1 13.2 6.9 48 5.6 W 22 35 12 19 1016.2 1016.1 0.0
22/11:00am 17.7 12.6 5.9 46 5.8 W 22 32 12 17 1016.8 1016.7 0.0
22/10:30am 17.4 12.8 6.6 49 5.3 W 20 32 11 17 1016.8 1016.7 0.0
22/10:00am 17.2 13.0 7.5 53 4.9 W 19 30 10 16 1017.1 1017.0 0.0
22/09:30am 16.7 12.7 8.4 58 4.2 WSW 19 28 10 15 1017.4 1017.3 0.0
22/09:00am 16.4 13.9 8.4 59 4.1 WSW 11 28 6 15 1017.3 1017.2 2.8
22/08:30am 15.6 13.1 9.7 68 3.1 W 13 24 7 13 1017.0 1016.9 2.8
22/08:00am 14.2 14.8 13.2 94 0.6 NNW 2 2 1 1 1016.8 1016.7 2.8
22/07:30am 13.9 14.1 13.1 95 0.4 W 4 6 2 3 1016.4 1016.3 2.8
22/07:00am 13.0 13.3 12.1 94 0.5 ENE 2 4 1 2 1016.0 1015.9 2.8
22/06:30am 13.6 14.4 12.7 94 0.5 CALM 0 0 0 0 1016.0 1015.9 2.8
22/06:00am 13.8 14.3 12.9 94 0.5 SSE 2 6 1 3 1016.0 1015.9 2.8
22/05:30am 14.4 15.5 13.4 94 0.6 CALM 0 0 0 0 1015.9 1015.8 2.8
22/05:00am 14.6 15.7 13.6 94 0.6 CALM 0 0 0 0 1015.5 1015.4 2.8
22/04:30am 14.9 15.8 13.9 94 0.6 SW 2 4 1 2 1015.6 1015.5 2.8
22/04:00am 15.2 16.5 14.2 94 0.6 CALM 0 0 0 0 1015.5 1015.4 2.8
22/03:30am 14.7 15.9 13.7 94 0.6 CALM 0 0 0 0 1015.5 1015.4 2.8
22/03:00am 15.1 16.4 14.0 93 0.6 CALM 0 0 0 0 1015.6 1015.5 2.6
22/02:30am 15.6 16.3 14.6 94 0.6 N 4 4 2 2 1015.7 1015.6 2.6
22/02:00am 15.6 17.0 14.5 93 0.6 CALM 0 0 0 0 1015.8 1015.7 2.6
22/01:30am 15.6 17.0 14.5 93 0.6 CALM 0 0 0 0 1016.1 1016.0 2.6
22/01:00am 15.7 17.2 14.6 93 0.6 CALM 0 0 0 0 1016.4 1016.3 2.6
22/12:30am 15.5 16.8 14.2 92 0.7 CALM 0 0 0 0 1016.8 1016.7 2.6
22/12:00am 15.6 17.0 14.3 92 0.7 CALM 0 4 0 2 1017.0 1016.9 2.6
 
Date/Time
EST
Temp
°C
App
Temp
°C
Dew
Point
Rel
Hum
%
Delta-T
°C
Wind Press
QNH
hPa
Press
MSL
hPa
Rain
since 9 am
mm
Dir
 
Spd
km/h
Gust
km/h
Spd
kts
Gust
kts
21/11:30pm 15.9 16.7 14.8 93 0.6 N 4 6 2 3 1017.2 1017.1 2.6
21/11:00pm 15.9 17.1 14.8 93 0.6 ENE 2 4 1 2 1017.2 1017.1 2.6
21/10:30pm 16.0 17.1 14.7 92 0.7 E 2 4 1 2 1017.6 1017.5 2.6
21/10:00pm 16.3 18.0 15.2 93 0.6 CALM 0 0 0 0 1017.9 1017.8 2.4
21/09:30pm 16.1 16.9 14.8 92 0.7 WSW 4 6 2 3 1018.2 1018.1 2.0
21/09:00pm 16.3 17.5 14.8 91 0.9 SSW 2 4 1 2 1017.5 1017.4 2.0
21/08:30pm 16.5 17.0 14.9 90 0.9 ENE 6 7 3 4 1017.5 1017.4 1.8
21/08:00pm 16.9 18.2 15.1 89 1.0 NE 2 6 1 3 1017.6 1017.5 1.2
21/07:30pm 17.3 18.4 14.6 84 1.6 ESE 2 4 1 2 1017.7 1017.6 0.6

Other Formats:

Comma delimited format used in spreadsheet applications
http://www.bom.gov.au/fwo/IDQ60801/IDQ60801.95575.axf

JavaScript Object Notation format (JSON) in row-major order
http://www.bom.gov.au/fwo/IDQ60801/IDQ60801.95575.json